createdAt,value
2019-02-14T00:00:37.745Z,11.40
2019-02-14T00:01:37.674Z,10.70
2019-02-14T00:02:37.606Z,10.90
2019-02-14T00:03:37.546Z,11.10
2019-02-14T00:04:37.468Z,11.30
2019-02-14T00:05:37.396Z,11.10
2019-02-14T00:06:37.328Z,11.20
2019-02-14T00:07:37.259Z,11.00
2019-02-14T00:08:37.190Z,11.00
2019-02-14T00:09:37.121Z,11.50
2019-02-14T00:10:37.055Z,11.20
2019-02-14T00:11:36.995Z,11.50
2019-02-14T00:12:36.912Z,11.90
2019-02-14T00:13:36.844Z,12.20
2019-02-14T00:14:36.786Z,12.80
2019-02-14T00:15:36.706Z,11.90
2019-02-14T00:16:36.638Z,12.20
2019-02-14T00:17:36.568Z,11.10
2019-02-14T00:18:36.504Z,11.90
2019-02-14T00:19:36.426Z,11.70
2019-02-14T00:20:36.359Z,11.40
2019-02-14T00:21:36.293Z,11.70
2019-02-14T00:22:36.219Z,11.00
2019-02-14T00:23:36.165Z,11.40
2019-02-14T00:24:36.083Z,11.70
2019-02-14T00:25:36.010Z,11.80
2019-02-14T00:26:35.945Z,11.70
2019-02-14T00:27:35.877Z,11.70
2019-02-14T00:28:35.806Z,11.40
2019-02-14T00:29:35.734Z,11.70
2019-02-14T00:30:35.665Z,11.70
2019-02-14T00:31:35.607Z,11.70
2019-02-14T00:32:35.536Z,12.00
2019-02-14T00:33:35.463Z,12.10
2019-02-14T00:34:35.389Z,12.10
2019-02-14T00:35:35.324Z,12.30
2019-02-14T00:36:35.263Z,12.00
2019-02-14T00:37:35.219Z,12.50
2019-02-14T00:38:35.111Z,11.70
2019-02-14T00:39:35.047Z,11.80
2019-02-14T00:40:34.978Z,12.30
2019-02-14T00:41:34.927Z,12.20
2019-02-14T00:42:34.834Z,12.40
2019-02-14T00:43:34.768Z,13.00
2019-02-14T00:44:34.695Z,12.00
2019-02-14T00:45:34.819Z,12.70
2019-02-14T00:46:34.559Z,11.90
2019-02-14T00:47:34.487Z,12.40
2019-02-14T00:48:34.426Z,12.60
2019-02-14T00:49:34.373Z,12.10
2019-02-14T00:50:34.280Z,12.60
2019-02-14T00:51:34.208Z,12.30
2019-02-14T00:52:34.143Z,11.90
2019-02-14T00:53:34.075Z,12.30
2019-02-14T00:54:34.002Z,12.90
2019-02-14T00:55:33.933Z,11.90
2019-02-14T00:56:33.893Z,11.90
2019-02-14T00:57:33.801Z,12.80
2019-02-14T00:58:33.724Z,12.20
2019-02-14T00:59:33.658Z,12.70
2019-02-14T01:00:33.587Z,12.40
2019-02-14T01:01:33.546Z,12.30
2019-02-14T01:02:33.452Z,12.60
2019-02-14T01:03:33.376Z,12.10
2019-02-14T01:04:33.308Z,12.10
2019-02-14T01:05:33.917Z,12.20
2019-02-14T01:06:33.169Z,12.30
2019-02-14T01:07:33.102Z,12.30
2019-02-14T01:08:33.032Z,12.80
2019-02-14T01:09:32.966Z,11.30
2019-02-14T01:10:32.896Z,12.30
2019-02-14T01:11:32.823Z,12.50
2019-02-14T01:12:32.760Z,11.40
2019-02-14T01:13:32.706Z,11.90
2019-02-14T01:14:32.618Z,11.60
2019-02-14T01:15:32.551Z,12.70
2019-02-14T01:16:32.480Z,12.40
2019-02-14T01:17:32.407Z,11.50
2019-02-14T01:18:32.337Z,10.90
2019-02-14T01:19:32.278Z,11.90
2019-02-14T01:20:32.201Z,11.40
2019-02-14T01:21:32.131Z,11.20
2019-02-14T01:22:32.066Z,11.70
2019-02-14T01:23:31.993Z,10.80
2019-02-14T01:24:31.924Z,11.20
2019-02-14T01:25:31.852Z,11.00
2019-02-14T01:26:31.789Z,10.70
2019-02-14T01:27:31.733Z,11.20
2019-02-14T01:28:31.652Z,11.10
2019-02-14T01:29:31.577Z,10.60
2019-02-14T01:30:31.508Z,11.10
2019-02-14T01:31:31.442Z,11.10
2019-02-14T01:32:31.369Z,10.90
2019-02-14T01:33:31.299Z,10.70
2019-02-14T01:34:31.231Z,11.10
2019-02-14T01:35:31.165Z,11.80
2019-02-14T01:36:31.102Z,10.20
2019-02-14T01:37:31.019Z,10.50
2019-02-14T01:38:30.952Z,10.70
2019-02-14T01:39:30.885Z,10.70
2019-02-14T01:40:30.814Z,10.50
2019-02-14T01:41:30.746Z,11.00
2019-02-14T01:42:30.677Z,11.00
2019-02-14T01:43:30.605Z,11.80
2019-02-14T01:44:30.535Z,10.60
2019-02-14T01:45:30.466Z,10.60
2019-02-14T01:46:30.402Z,10.60
2019-02-14T01:47:30.329Z,10.40
2019-02-14T01:48:30.258Z,10.40
2019-02-14T01:49:30.189Z,10.60
2019-02-14T01:50:30.119Z,11.30
2019-02-14T01:51:30.053Z,10.60
2019-02-14T01:52:30.000Z,10.70
2019-02-14T01:53:29.909Z,11.10
2019-02-14T01:54:29.844Z,10.80
2019-02-14T01:55:29.776Z,11.00
2019-02-14T01:56:29.701Z,10.70
2019-02-14T01:57:29.632Z,11.30
2019-02-14T01:58:29.569Z,10.80
2019-02-14T01:59:29.504Z,10.00
2019-02-14T02:00:29.434Z,10.70
2019-02-14T02:01:29.355Z,10.40
2019-02-14T02:02:29.290Z,10.80
2019-02-14T02:03:29.221Z,10.00
2019-02-14T02:04:29.171Z,10.90
2019-02-14T02:05:29.090Z,9.60
2019-02-14T02:06:29.013Z,10.30
2019-02-14T02:07:28.942Z,10.60
2019-02-14T02:08:28.876Z,10.40
2019-02-14T02:09:28.814Z,10.20
2019-02-14T02:10:28.735Z,9.90
2019-02-14T02:11:28.663Z,11.10
2019-02-14T02:12:28.597Z,10.80
2019-02-14T02:13:28.536Z,10.00
2019-02-14T02:14:28.469Z,10.70
2019-02-14T02:15:28.388Z,9.50
2019-02-14T02:16:28.318Z,10.30
2019-02-14T02:17:28.252Z,10.00
2019-02-14T02:18:28.191Z,9.90
2019-02-14T02:19:28.121Z,10.20
2019-02-14T02:20:33.317Z,10.70
2019-02-14T02:21:27.973Z,10.30
2019-02-14T02:22:27.908Z,9.30
2019-02-14T02:23:27.838Z,10.00
2019-02-14T02:24:27.764Z,10.80
2019-02-14T02:25:27.697Z,9.60
2019-02-14T02:26:27.624Z,10.00
2019-02-14T02:27:27.574Z,10.40
2019-02-14T02:28:27.487Z,9.40
2019-02-14T02:29:27.419Z,10.20
2019-02-14T02:30:27.349Z,9.70
2019-02-14T02:31:27.303Z,9.60
2019-02-14T02:32:27.208Z,9.80
2019-02-14T02:33:27.160Z,9.70
2019-02-14T02:34:27.087Z,9.80
2019-02-14T02:35:27.007Z,9.70
2019-02-14T02:36:26.935Z,9.50
2019-02-14T02:37:26.865Z,9.70
2019-02-14T02:38:26.794Z,9.40
2019-02-14T02:39:26.741Z,9.50
2019-02-14T02:40:26.653Z,9.40
2019-02-14T02:41:26.612Z,9.60
2019-02-14T02:42:26.525Z,9.80
2019-02-14T02:43:26.457Z,9.40
2019-02-14T02:44:26.377Z,9.50
2019-02-14T02:45:26.312Z,9.50
2019-02-14T02:46:26.245Z,9.20
2019-02-14T02:47:26.172Z,9.30
2019-02-14T02:48:26.098Z,9.40
2019-02-14T02:49:26.031Z,9.80
2019-02-14T02:50:25.962Z,9.40
2019-02-14T02:51:25.909Z,9.30
2019-02-14T02:52:25.825Z,9.70
2019-02-14T02:53:25.755Z,9.40
2019-02-14T02:54:25.682Z,9.30
2019-02-14T02:55:25.616Z,9.80
2019-02-14T02:56:25.541Z,9.90
2019-02-14T02:57:25.475Z,9.10
2019-02-14T02:58:25.404Z,9.20
2019-02-14T02:59:25.357Z,9.90
2019-02-14T03:00:25.273Z,9.70
2019-02-14T03:01:25.200Z,9.90
2019-02-14T03:02:25.127Z,9.50
2019-02-14T03:03:25.065Z,9.60
2019-02-14T03:04:24.994Z,10.10
2019-02-14T03:05:24.946Z,10.40
2019-02-14T03:06:24.867Z,8.80
2019-02-14T03:07:24.783Z,10.00
2019-02-14T03:08:24.715Z,9.10
2019-02-14T03:09:24.646Z,10.00
2019-02-14T03:10:24.597Z,9.50
2019-02-14T03:11:24.504Z,10.30
2019-02-14T03:12:24.439Z,10.00
2019-02-14T03:13:24.405Z,10.00
2019-02-14T03:14:24.318Z,9.70
2019-02-14T03:15:24.226Z,9.40
2019-02-14T03:16:24.175Z,9.30
2019-02-14T03:17:24.088Z,9.70
2019-02-14T03:18:24.020Z,9.70
2019-02-14T03:19:23.947Z,9.90
2019-02-14T03:20:23.877Z,9.60
2019-02-14T03:21:23.809Z,9.70
2019-02-14T03:22:23.760Z,10.30
2019-02-14T03:23:23.668Z,10.10
2019-02-14T03:24:23.650Z,9.60
2019-02-14T03:25:23.534Z,9.70
2019-02-14T03:26:23.460Z,9.70
2019-02-14T03:27:23.393Z,9.60
2019-02-14T03:28:23.320Z,10.30
2019-02-14T03:29:23.320Z,9.50
2019-02-14T03:30:23.202Z,9.70
2019-02-14T03:31:23.114Z,9.70
2019-02-14T03:32:23.045Z,9.90
2019-02-14T03:33:22.975Z,9.90
2019-02-14T03:34:22.916Z,9.50
2019-02-14T03:35:22.841Z,10.20
2019-02-14T03:36:22.770Z,10.00
2019-02-14T03:37:22.696Z,9.60
2019-02-14T03:38:22.627Z,9.60
2019-02-14T03:39:22.554Z,10.60
2019-02-14T03:40:22.487Z,9.90
2019-02-14T03:41:22.429Z,10.70
2019-02-14T03:42:22.358Z,10.30
2019-02-14T03:43:22.275Z,10.80
2019-02-14T03:44:22.207Z,10.80
2019-02-14T03:45:22.143Z,10.70
2019-02-14T03:46:22.071Z,10.70
2019-02-14T03:47:21.995Z,10.30
2019-02-14T03:48:21.929Z,10.70
2019-02-14T03:49:21.862Z,10.20
2019-02-14T03:50:21.804Z,10.90
2019-02-14T03:51:21.717Z,11.00
2019-02-14T03:52:21.650Z,10.60
2019-02-14T03:53:21.582Z,10.10
2019-02-14T03:54:21.518Z,10.00
2019-02-14T03:55:21.445Z,10.10
2019-02-14T03:56:21.371Z,10.40
2019-02-14T03:57:21.303Z,9.90
2019-02-14T03:58:21.251Z,10.30
2019-02-14T03:59:21.160Z,9.60
2019-02-14T04:00:21.095Z,10.00
2019-02-14T04:01:21.026Z,10.70
2019-02-14T04:02:20.977Z,11.10
2019-02-14T04:03:20.881Z,10.40
2019-02-14T04:04:20.817Z,10.20
2019-02-14T04:05:20.775Z,9.80
2019-02-14T04:06:27.131Z,10.20
2019-02-14T04:07:20.602Z,10.30
2019-02-14T04:08:20.539Z,10.40
2019-02-14T04:09:20.474Z,10.70
2019-02-14T04:10:20.398Z,10.20
2019-02-14T04:11:20.324Z,10.70
2019-02-14T04:12:20.260Z,10.20
2019-02-14T04:13:20.190Z,10.10
2019-02-14T04:14:20.126Z,10.80
2019-02-14T04:15:20.053Z,10.00
2019-02-14T04:16:19.981Z,11.20
2019-02-14T04:17:19.942Z,10.40
2019-02-14T04:18:19.856Z,9.80
2019-02-14T04:19:19.773Z,10.70
2019-02-14T04:20:19.702Z,10.20
2019-02-14T04:21:19.634Z,9.70
2019-02-14T04:22:19.563Z,10.70
2019-02-14T04:23:19.492Z,10.60
2019-02-14T04:24:19.423Z,10.10
2019-02-14T04:25:19.354Z,9.70
2019-02-14T04:26:19.296Z,10.40
2019-02-14T04:27:19.209Z,10.70
2019-02-14T04:28:19.156Z,10.70
2019-02-14T04:29:19.110Z,10.10
2019-02-14T04:30:19.007Z,11.40
2019-02-14T04:31:18.945Z,10.80
2019-02-14T04:32:18.868Z,10.30
2019-02-14T04:33:18.822Z,9.70
2019-02-14T04:34:18.726Z,10.60
2019-02-14T04:35:18.664Z,10.60
2019-02-14T04:36:18.634Z,10.30
2019-02-14T04:37:18.542Z,10.30
2019-02-14T04:38:18.449Z,10.20
2019-02-14T04:39:18.385Z,10.40
2019-02-14T04:40:18.322Z,10.00
2019-02-14T04:41:18.252Z,10.50
2019-02-14T04:42:18.171Z,10.40
2019-02-14T04:43:18.104Z,11.20
2019-02-14T04:44:18.037Z,10.70
2019-02-14T04:45:17.971Z,10.70
2019-02-14T04:46:17.915Z,10.70
2019-02-14T04:47:17.823Z,10.80
2019-02-14T04:48:17.771Z,11.10
2019-02-14T04:49:17.706Z,11.40
2019-02-14T04:50:17.630Z,10.80
2019-02-14T04:51:17.561Z,10.70
2019-02-14T04:52:17.489Z,11.10
2019-02-14T04:53:17.429Z,10.70
2019-02-14T04:54:17.340Z,10.80
2019-02-14T04:55:17.270Z,10.80
2019-02-14T04:56:17.248Z,11.80
2019-02-14T04:57:17.151Z,12.10
2019-02-14T04:58:17.065Z,11.60
2019-02-14T04:59:16.989Z,12.80
2019-02-14T05:00:16.934Z,11.80
2019-02-14T05:01:16.863Z,11.90
2019-02-14T05:02:16.792Z,11.70
2019-02-14T05:03:16.711Z,11.10
2019-02-14T05:04:16.647Z,11.20
2019-02-14T05:05:16.583Z,10.30
2019-02-14T05:06:16.517Z,11.20
2019-02-14T05:07:16.441Z,11.10
2019-02-14T05:08:16.367Z,10.60
2019-02-14T05:09:16.300Z,10.30
2019-02-14T05:10:16.223Z,10.30
2019-02-14T05:11:16.155Z,10.70
2019-02-14T05:12:16.101Z,9.40
2019-02-14T05:13:16.030Z,10.60
2019-02-14T05:14:15.943Z,10.80
2019-02-14T05:15:15.876Z,10.10
2019-02-14T05:16:15.809Z,10.70
2019-02-14T05:17:15.769Z,10.50
2019-02-14T05:18:15.668Z,10.80
2019-02-14T05:19:15.598Z,9.90
2019-02-14T05:20:15.529Z,10.50
2019-02-14T05:21:15.459Z,10.10
2019-02-14T05:22:15.386Z,10.80
2019-02-14T05:23:15.322Z,10.10
2019-02-14T05:24:15.252Z,10.90
2019-02-14T05:25:15.182Z,10.40
2019-02-14T05:26:15.109Z,10.30
2019-02-14T05:27:15.045Z,10.60
2019-02-14T05:28:14.974Z,11.20
2019-02-14T05:29:14.937Z,11.30
2019-02-14T05:30:14.832Z,10.40
2019-02-14T05:31:14.772Z,10.70
2019-02-14T05:32:14.697Z,11.20
2019-02-14T05:33:14.638Z,11.40
2019-02-14T05:34:14.555Z,11.20
2019-02-14T05:35:14.487Z,11.00
2019-02-14T05:36:14.417Z,10.80
2019-02-14T05:37:14.352Z,11.00
2019-02-14T05:38:14.283Z,10.90
2019-02-14T05:39:14.211Z,11.20
2019-02-14T05:40:14.142Z,10.80
2019-02-14T05:41:14.070Z,11.50
2019-02-14T05:42:14.001Z,11.90
2019-02-14T05:43:13.932Z,10.90
2019-02-14T05:44:13.891Z,12.00
2019-02-14T05:45:13.814Z,11.60
2019-02-14T05:46:13.732Z,10.70
2019-02-14T05:47:13.655Z,11.30
2019-02-14T05:48:13.586Z,11.10
2019-02-14T05:49:13.525Z,11.70
2019-02-14T05:50:13.450Z,11.20
2019-02-14T05:51:13.377Z,11.20
2019-02-14T05:52:13.306Z,11.10
2019-02-14T05:53:13.248Z,10.60
2019-02-14T05:54:13.175Z,11.00
2019-02-14T05:55:13.114Z,11.00
2019-02-14T05:56:13.051Z,10.80
2019-02-14T05:57:12.960Z,10.60
2019-02-14T05:58:12.892Z,10.50
2019-02-14T05:59:12.841Z,11.30
2019-02-14T06:00:12.778Z,11.00
2019-02-14T06:01:12.684Z,11.20
2019-02-14T06:02:12.613Z,10.70
2019-02-14T06:03:12.596Z,11.90
2019-02-14T06:04:12.504Z,10.30
2019-02-14T06:05:12.404Z,10.80
2019-02-14T06:06:12.337Z,10.30
2019-02-14T06:07:12.267Z,11.10
2019-02-14T06:08:12.199Z,11.40
2019-02-14T06:09:12.148Z,11.40
2019-02-14T06:10:12.059Z,11.10
2019-02-14T06:11:11.989Z,11.20
2019-02-14T06:12:11.920Z,11.00
2019-02-14T06:13:11.849Z,11.20
2019-02-14T06:14:11.785Z,11.00
2019-02-14T06:15:11.716Z,11.30
2019-02-14T06:16:11.644Z,10.80
2019-02-14T06:17:11.570Z,11.10
2019-02-14T06:18:11.503Z,10.70
2019-02-14T06:19:11.434Z,11.40
2019-02-14T06:20:11.370Z,11.70
2019-02-14T06:21:11.294Z,10.90
2019-02-14T06:22:11.223Z,10.40
2019-02-14T06:23:11.156Z,11.00
2019-02-14T06:24:11.093Z,11.20
2019-02-14T06:25:11.020Z,11.80
2019-02-14T06:26:10.946Z,11.00
2019-02-14T06:27:10.880Z,10.40
2019-02-14T06:28:10.806Z,10.30
2019-02-14T06:29:10.764Z,10.80
2019-02-14T06:30:10.677Z,10.60
2019-02-14T06:31:10.599Z,10.60
2019-02-14T06:32:10.533Z,11.00
2019-02-14T06:33:10.464Z,11.00
2019-02-14T06:34:10.393Z,10.80
2019-02-14T06:35:10.323Z,11.10
2019-02-14T06:36:10.258Z,11.00
2019-02-14T06:37:10.187Z,10.70
2019-02-14T06:38:10.113Z,10.30
2019-02-14T06:39:10.046Z,10.70
2019-02-14T06:40:09.977Z,10.50
2019-02-14T06:41:09.902Z,10.80
2019-02-14T06:42:09.836Z,11.30
2019-02-14T06:43:09.766Z,10.60
2019-02-14T06:44:09.709Z,11.00
2019-02-14T06:45:09.637Z,10.70
2019-02-14T06:46:09.558Z,10.80
2019-02-14T06:47:09.487Z,11.00
2019-02-14T06:48:09.424Z,10.30
2019-02-14T06:49:09.369Z,10.90
2019-02-14T06:50:09.278Z,11.00
2019-02-14T06:51:09.209Z,10.80
2019-02-14T06:52:09.144Z,11.10
2019-02-14T06:53:09.074Z,10.50
2019-02-14T06:54:09.018Z,11.00
2019-02-14T06:55:08.960Z,10.50
2019-02-14T06:56:08.871Z,10.70
2019-02-14T06:57:08.808Z,10.70
2019-02-14T06:58:08.756Z,11.20
2019-02-14T06:59:08.669Z,10.90
2019-02-14T07:00:08.589Z,10.80
2019-02-14T07:01:08.518Z,11.10
2019-02-14T07:02:08.454Z,10.70
2019-02-14T07:03:08.386Z,10.70
2019-02-14T07:04:08.310Z,10.50
2019-02-14T07:05:08.242Z,10.70
2019-02-14T07:06:08.174Z,10.30
2019-02-14T07:07:08.113Z,10.90
2019-02-14T07:08:08.031Z,11.10
2019-02-14T07:09:07.966Z,10.30
2019-02-14T07:10:07.893Z,10.60
2019-02-14T07:11:07.837Z,10.90
2019-02-14T07:12:07.757Z,10.30
2019-02-14T07:13:07.686Z,10.70
2019-02-14T07:14:07.630Z,11.30
2019-02-14T07:15:07.556Z,10.60
2019-02-14T07:16:07.473Z,10.30
2019-02-14T07:17:07.410Z,10.70
2019-02-14T07:18:07.371Z,11.10
2019-02-14T07:19:07.287Z,10.20
2019-02-14T07:20:07.198Z,9.90
2019-02-14T07:21:07.132Z,10.50
2019-02-14T07:22:07.058Z,9.60
2019-02-14T07:23:07.007Z,9.70
2019-02-14T07:24:06.918Z,10.40
2019-02-14T07:25:06.855Z,10.30
2019-02-14T07:26:06.782Z,10.40
2019-02-14T07:27:06.713Z,9.90
2019-02-14T07:28:06.653Z,9.70
2019-02-14T07:29:06.576Z,10.20
2019-02-14T07:30:06.548Z,9.90
2019-02-14T07:31:06.470Z,9.70
2019-02-14T07:32:06.364Z,9.80
2019-02-14T07:33:06.300Z,10.40
2019-02-14T07:34:06.261Z,10.20
2019-02-14T07:35:06.161Z,10.20
2019-02-14T07:36:06.099Z,10.00
2019-02-14T07:37:06.027Z,10.60
2019-02-14T07:38:05.955Z,10.30
2019-02-14T07:39:05.887Z,9.90
2019-02-14T07:40:05.884Z,10.10
2019-02-14T07:41:05.797Z,10.40
2019-02-14T07:42:05.733Z,9.90
2019-02-14T07:43:05.657Z,9.90
2019-02-14T07:44:05.545Z,10.30
2019-02-14T07:45:05.532Z,9.60
2019-02-14T07:46:05.459Z,10.70
2019-02-14T07:47:05.371Z,10.30
2019-02-14T07:48:05.273Z,10.40
2019-02-14T07:49:05.239Z,10.50
2019-02-14T07:50:05.135Z,10.50
2019-02-14T07:51:05.060Z,10.40
2019-02-14T07:52:04.988Z,10.00
2019-02-14T07:53:04.924Z,9.90
2019-02-14T07:54:04.868Z,10.00
2019-02-14T07:55:04.827Z,9.60
2019-02-14T07:56:04.729Z,10.30
2019-02-14T07:57:04.659Z,9.50
2019-02-14T07:58:04.590Z,9.10
2019-02-14T07:59:04.535Z,8.80
2019-02-14T08:00:04.438Z,8.90
2019-02-14T08:01:04.409Z,8.10
2019-02-14T08:02:04.300Z,8.90
2019-02-14T08:03:04.237Z,8.70
2019-02-14T08:04:04.162Z,8.70
2019-02-14T08:05:04.094Z,8.70
2019-02-14T08:06:04.031Z,8.90
2019-02-14T08:07:03.966Z,8.50
2019-02-14T08:08:03.896Z,9.10
2019-02-14T08:09:03.834Z,8.80
2019-02-14T08:10:03.753Z,9.00
2019-02-14T08:11:03.687Z,9.30
2019-02-14T08:12:03.618Z,9.20
2019-02-14T08:13:03.578Z,8.60
2019-02-14T08:14:03.485Z,8.50
2019-02-14T08:15:03.413Z,9.30
2019-02-14T08:16:03.340Z,8.30
2019-02-14T08:17:03.300Z,8.60
2019-02-14T08:18:03.201Z,9.00
2019-02-14T08:19:03.138Z,9.40
2019-02-14T08:20:03.070Z,9.70
2019-02-14T08:21:03.017Z,9.50
2019-02-14T08:22:02.937Z,9.40
2019-02-14T08:23:02.862Z,9.80
2019-02-14T08:24:02.799Z,9.20
2019-02-14T08:25:02.732Z,9.50
2019-02-14T08:26:10.592Z,9.20
2019-02-14T08:27:02.593Z,8.90
2019-02-14T08:28:02.517Z,8.50
2019-02-14T08:29:02.460Z,8.80
2019-02-14T08:30:02.379Z,8.70
2019-02-14T08:31:02.317Z,8.10
2019-02-14T08:32:02.268Z,9.00
2019-02-14T08:33:02.175Z,8.30
2019-02-14T08:34:02.116Z,8.70
2019-02-14T08:35:02.045Z,8.50
2019-02-14T08:36:01.996Z,8.30
2019-02-14T08:37:01.902Z,8.10
2019-02-14T08:38:01.840Z,8.10
2019-02-14T08:39:01.772Z,8.10
2019-02-14T08:40:01.709Z,8.20
2019-02-14T08:41:01.641Z,8.50
2019-02-14T08:42:01.574Z,8.10
2019-02-14T08:43:01.504Z,7.80
2019-02-14T08:44:01.430Z,8.00
2019-02-14T08:45:01.364Z,7.70
2019-02-14T08:46:01.294Z,7.40
2019-02-14T08:47:01.227Z,7.60
2019-02-14T08:48:01.155Z,7.50
2019-02-14T08:49:01.090Z,7.50
2019-02-14T08:50:01.023Z,7.80
2019-02-14T08:51:00.953Z,7.80
2019-02-14T08:52:00.896Z,7.70
2019-02-14T08:53:00.841Z,8.20
2019-02-14T08:54:00.751Z,7.70
2019-02-14T08:55:00.686Z,8.40
2019-02-14T08:56:00.614Z,8.50
2019-02-14T08:57:00.549Z,7.60
2019-02-14T08:58:00.495Z,7.90
2019-02-14T08:59:00.413Z,8.40
2019-02-14T09:00:00.349Z,8.00
2019-02-14T09:01:00.286Z,8.10
2019-02-14T09:02:00.209Z,8.40
2019-02-14T09:03:00.192Z,8.50
2019-02-14T09:04:00.094Z,7.80
2019-02-14T09:05:00.007Z,8.00
2019-02-14T09:05:59.940Z,7.80
2019-02-14T09:06:59.876Z,8.20
2019-02-14T09:07:59.805Z,8.10
2019-02-14T09:08:59.748Z,7.90
2019-02-14T09:09:59.669Z,7.80
2019-02-14T09:10:59.603Z,8.30
2019-02-14T09:11:59.536Z,7.60
2019-02-14T09:12:59.472Z,8.00
2019-02-14T09:13:59.402Z,7.80
2019-02-14T09:14:59.382Z,7.80
2019-02-14T09:15:59.278Z,8.20
2019-02-14T09:16:59.201Z,7.60
2019-02-14T09:17:59.133Z,7.30
2019-02-14T09:18:59.074Z,7.70
2019-02-14T09:19:59.017Z,7.20
2019-02-14T09:20:58.932Z,7.30
2019-02-14T09:21:58.866Z,7.10
2019-02-14T09:22:58.819Z,7.30
2019-02-14T09:23:58.733Z,7.60
2019-02-14T09:24:58.668Z,7.00
2019-02-14T09:25:58.601Z,7.60
2019-02-14T09:26:58.547Z,6.80
2019-02-14T09:27:58.462Z,7.20
2019-02-14T09:28:58.398Z,7.40
2019-02-14T09:29:58.332Z,7.30
2019-02-14T09:30:58.265Z,6.70
2019-02-14T09:31:58.200Z,7.30
2019-02-14T09:32:58.165Z,7.30
2019-02-14T09:33:58.065Z,7.30
2019-02-14T09:34:57.996Z,7.10
2019-02-14T09:35:57.931Z,7.80
2019-02-14T09:36:57.865Z,8.10
2019-02-14T09:38:03.395Z,7.70
2019-02-14T09:38:57.738Z,8.10
2019-02-14T09:39:57.683Z,7.70
2019-02-14T09:40:57.601Z,7.20
2019-02-14T09:41:57.529Z,7.70
2019-02-14T09:42:57.463Z,8.20
2019-02-14T09:43:57.402Z,7.20
2019-02-14T09:44:57.357Z,7.90
2019-02-14T09:45:57.259Z,8.00
2019-02-14T09:46:57.212Z,8.00
2019-02-14T09:47:57.139Z,8.00
2019-02-14T09:48:57.068Z,7.70
2019-02-14T09:49:57.006Z,7.30
2019-02-14T09:50:56.939Z,7.70
2019-02-14T09:51:56.875Z,8.10
2019-02-14T09:52:56.796Z,7.60
2019-02-14T09:53:56.732Z,7.50
2019-02-14T09:54:56.684Z,7.20
2019-02-14T09:55:56.605Z,7.10
2019-02-14T09:56:56.531Z,7.20
2019-02-14T09:57:56.477Z,7.80
2019-02-14T09:58:56.425Z,7.20
2019-02-14T09:59:56.334Z,7.60
2019-02-14T10:00:56.276Z,7.60
2019-02-14T10:01:56.222Z,7.60
2019-02-14T10:02:56.134Z,7.60
2019-02-14T10:03:56.079Z,7.00
2019-02-14T10:04:56.003Z,7.90
2019-02-14T10:05:55.941Z,7.80
2019-02-14T10:06:55.866Z,7.60
2019-02-14T10:07:55.801Z,7.70
2019-02-14T10:08:55.754Z,7.80
2019-02-14T10:09:55.675Z,8.20
2019-02-14T10:10:55.606Z,7.90
2019-02-14T10:11:55.536Z,7.50
2019-02-14T10:12:55.496Z,7.10
2019-02-14T10:13:55.398Z,7.50
2019-02-14T10:14:55.336Z,7.50
2019-02-14T10:15:55.271Z,7.20
2019-02-14T10:16:55.216Z,7.40
2019-02-14T10:17:55.144Z,7.10
2019-02-14T10:18:55.092Z,6.90
2019-02-14T10:19:55.025Z,7.60
2019-02-14T10:20:54.936Z,8.20
2019-02-14T10:21:54.866Z,7.90
2019-02-14T10:22:54.825Z,6.80
2019-02-14T10:23:54.755Z,7.40
2019-02-14T10:24:54.683Z,8.10
2019-02-14T10:25:54.614Z,7.80
2019-02-14T10:26:54.583Z,7.50
2019-02-14T10:27:54.472Z,7.10
2019-02-14T10:28:54.408Z,6.90
2019-02-14T10:29:54.340Z,7.70
2019-02-14T10:30:54.277Z,6.50
2019-02-14T10:31:54.215Z,7.00
2019-02-14T10:32:54.164Z,6.90
2019-02-14T10:33:54.080Z,7.20
2019-02-14T10:34:54.007Z,7.00
2019-02-14T10:35:53.947Z,7.30
2019-02-14T10:36:53.879Z,7.00
2019-02-14T10:37:53.833Z,6.90
2019-02-14T10:38:53.750Z,6.80
2019-02-14T10:39:53.695Z,6.60
2019-02-14T10:40:53.628Z,6.50
2019-02-14T10:41:53.548Z,6.40
2019-02-14T10:42:53.689Z,6.50
2019-02-14T10:43:53.461Z,6.40
2019-02-14T10:44:53.354Z,6.90
2019-02-14T10:45:53.662Z,6.90
2019-02-14T10:46:53.221Z,6.80
2019-02-14T10:47:53.179Z,6.20
2019-02-14T10:48:53.087Z,6.30
2019-02-14T10:49:53.021Z,6.40
2019-02-14T10:50:52.969Z,6.70
2019-02-14T10:51:52.915Z,6.80
2019-02-14T10:52:52.887Z,6.70
2019-02-14T10:53:52.856Z,6.80
2019-02-14T10:54:52.718Z,6.30
2019-02-14T10:55:52.623Z,7.10
2019-02-14T10:56:52.565Z,6.50
2019-02-14T10:57:52.493Z,6.10
2019-02-14T10:58:52.429Z,6.40
2019-02-14T10:59:52.363Z,6.10
2019-02-14T11:00:52.301Z,5.80
2019-02-14T11:01:52.250Z,5.90
2019-02-14T11:02:52.162Z,5.70
2019-02-14T11:03:52.100Z,5.20
2019-02-14T11:04:52.056Z,6.30
2019-02-14T11:05:51.967Z,5.70
2019-02-14T11:06:51.921Z,5.90
2019-02-14T11:07:51.838Z,5.90
2019-02-14T11:08:51.781Z,5.80
2019-02-14T11:09:51.705Z,6.50
2019-02-14T11:10:51.657Z,5.80
2019-02-14T11:11:51.595Z,6.30
2019-02-14T11:12:51.507Z,6.00
2019-02-14T11:13:51.442Z,5.40
2019-02-14T11:14:51.374Z,5.70
2019-02-14T11:15:51.311Z,5.20
2019-02-14T11:16:51.267Z,5.90
2019-02-14T11:17:51.189Z,5.50
2019-02-14T11:18:51.131Z,5.70
2019-02-14T11:19:51.047Z,5.30
2019-02-14T11:20:50.984Z,5.60
2019-02-14T11:21:50.918Z,5.50
2019-02-14T11:22:50.851Z,5.60
2019-02-14T11:23:50.787Z,5.30
2019-02-14T11:24:50.722Z,5.90
2019-02-14T11:25:50.656Z,5.80
2019-02-14T11:26:50.591Z,6.40
2019-02-14T11:27:50.526Z,5.70
2019-02-14T11:28:50.481Z,5.90
2019-02-14T11:29:50.396Z,5.70
2019-02-14T11:30:50.342Z,5.80
2019-02-14T11:31:50.261Z,5.90
2019-02-14T11:32:50.200Z,5.60
2019-02-14T11:33:50.132Z,6.50
2019-02-14T11:34:50.067Z,6.20
2019-02-14T11:35:50.006Z,6.20
2019-02-14T11:36:49.935Z,5.70
2019-02-14T11:37:49.869Z,5.70
2019-02-14T11:38:49.807Z,6.70
2019-02-14T11:39:49.743Z,6.60
2019-02-14T11:40:49.683Z,6.20
2019-02-14T11:41:49.613Z,5.90
2019-02-14T11:42:49.554Z,5.80
2019-02-14T11:43:49.473Z,6.40
2019-02-14T11:44:49.411Z,6.30
2019-02-14T11:45:49.346Z,6.20
2019-02-14T11:46:51.479Z,6.10
2019-02-14T11:47:49.214Z,6.20
2019-02-14T11:48:49.151Z,5.50
2019-02-14T11:49:49.098Z,5.60
2019-02-14T11:50:49.015Z,5.80
2019-02-14T11:51:48.955Z,6.30
2019-02-14T11:52:48.904Z,5.70
2019-02-14T11:53:48.821Z,5.60
2019-02-14T11:54:48.760Z,5.60
2019-02-14T11:55:48.693Z,5.60
2019-02-14T11:56:48.626Z,5.70
2019-02-14T11:57:48.569Z,5.80
2019-02-14T11:58:48.502Z,5.80
2019-02-14T11:59:48.439Z,6.20
2019-02-14T12:00:48.363Z,5.60
2019-02-14T12:01:55.179Z,5.90
2019-02-14T12:02:55.126Z,5.40
2019-02-14T12:03:48.171Z,5.70
2019-02-14T12:04:48.104Z,5.50
2019-02-14T12:05:48.042Z,5.40
2019-02-14T12:06:48.000Z,6.10
2019-02-14T12:07:47.918Z,5.70
2019-02-14T12:08:57.995Z,5.80
2019-02-14T12:09:47.805Z,5.90
2019-02-14T12:10:47.713Z,5.30
2019-02-14T12:11:47.651Z,5.90
2019-02-14T12:12:47.587Z,5.60
2019-02-14T12:13:47.525Z,5.40
2019-02-14T12:14:47.460Z,5.30
2019-02-14T12:15:47.389Z,5.60
2019-02-14T12:16:47.331Z,5.70
2019-02-14T12:17:47.258Z,6.00
2019-02-14T12:18:47.195Z,5.70
2019-02-14T12:19:48.853Z,5.90
2019-02-14T12:20:47.986Z,5.50
2019-02-14T12:21:47.000Z,5.50
2019-02-14T12:22:47.430Z,6.10
2019-02-14T12:23:46.877Z,6.20
2019-02-14T12:24:46.808Z,5.40
2019-02-14T12:25:46.739Z,5.90
2019-02-14T12:26:46.681Z,5.60
2019-02-14T12:27:46.606Z,5.60
2019-02-14T12:28:46.547Z,5.50
2019-02-14T12:29:46.482Z,5.00
2019-02-14T12:30:46.417Z,5.30
2019-02-14T12:31:46.351Z,4.90
2019-02-14T12:32:46.289Z,5.40
2019-02-14T12:33:46.223Z,5.50
2019-02-14T12:34:46.169Z,5.10
2019-02-14T12:35:46.133Z,5.40
2019-02-14T12:36:46.029Z,4.90
2019-02-14T12:37:45.960Z,4.70
2019-02-14T12:38:45.905Z,4.50
2019-02-14T12:39:45.848Z,4.50
2019-02-14T12:40:45.771Z,5.30
2019-02-14T12:41:45.762Z,4.90
2019-02-14T12:42:45.645Z,4.60
2019-02-14T12:43:45.577Z,5.20
2019-02-14T12:44:45.514Z,4.60
2019-02-14T12:45:45.448Z,4.40
2019-02-14T12:46:45.384Z,4.30
2019-02-14T12:47:45.316Z,4.20
2019-02-14T12:48:45.260Z,3.80
2019-02-14T12:49:45.194Z,3.90
2019-02-14T12:50:45.132Z,3.60
2019-02-14T12:51:45.060Z,4.00
2019-02-14T12:52:44.998Z,4.10
2019-02-14T12:53:44.935Z,4.40
2019-02-14T12:54:44.867Z,4.80
2019-02-14T12:55:44.808Z,4.30
2019-02-14T12:56:44.750Z,4.10
2019-02-14T12:57:44.682Z,4.00
2019-02-14T12:58:44.619Z,4.60
2019-02-14T12:59:44.551Z,4.30
2019-02-14T13:00:44.481Z,4.00
2019-02-14T13:01:44.419Z,3.90
2019-02-14T13:02:44.353Z,3.80
2019-02-14T13:03:44.293Z,3.60
2019-02-14T13:04:44.223Z,3.60